createdAt,value
2019-03-19T00:00:31.981Z,2.84
2019-03-19T00:01:31.957Z,2.68
2019-03-19T00:02:31.948Z,2.71
2019-03-19T00:03:31.946Z,2.82
2019-03-19T00:04:31.941Z,2.87
2019-03-19T00:05:31.960Z,2.76
2019-03-19T00:06:31.887Z,2.86
2019-03-19T00:07:31.901Z,2.78
2019-03-19T00:08:31.884Z,2.86
2019-03-19T00:09:31.909Z,2.91
2019-03-19T00:10:31.845Z,2.90
2019-03-19T00:11:31.861Z,2.91
2019-03-19T00:12:31.842Z,2.94
2019-03-19T00:13:31.836Z,2.89
2019-03-19T00:14:31.885Z,2.90
2019-03-19T00:15:31.843Z,3.00
2019-03-19T00:16:31.801Z,2.93
2019-03-19T00:17:31.806Z,2.93
2019-03-19T00:18:31.794Z,2.94
2019-03-19T00:19:31.801Z,3.07
2019-03-19T00:20:31.734Z,2.94
2019-03-19T00:21:31.749Z,3.08
2019-03-19T00:22:31.758Z,3.02
2019-03-19T00:23:31.754Z,3.09
2019-03-19T00:24:31.711Z,3.11
2019-03-19T00:25:31.702Z,3.09
2019-03-19T00:26:31.703Z,3.17
2019-03-19T00:27:31.727Z,3.04
2019-03-19T00:28:31.690Z,3.14
2019-03-19T00:29:31.709Z,2.96
2019-03-19T00:30:31.675Z,3.07
2019-03-19T00:31:31.644Z,3.04
2019-03-19T00:32:31.647Z,3.04
2019-03-19T00:33:31.634Z,3.07
2019-03-19T00:34:31.625Z,3.11
2019-03-19T00:35:31.616Z,3.08
2019-03-19T00:36:31.605Z,3.04
2019-03-19T00:37:31.575Z,3.11
2019-03-19T00:38:31.566Z,3.14
2019-03-19T00:39:31.564Z,3.05
2019-03-19T00:40:31.604Z,2.94
2019-03-19T00:41:31.521Z,3.02
2019-03-19T00:42:31.553Z,2.94
2019-03-19T00:43:31.554Z,2.97
2019-03-19T00:44:31.495Z,2.91
2019-03-19T00:45:31.565Z,2.93
2019-03-19T00:46:31.482Z,2.93
2019-03-19T00:47:31.472Z,2.86
2019-03-19T00:48:31.446Z,2.84
2019-03-19T00:49:31.457Z,2.87
2019-03-19T00:50:31.465Z,2.82
2019-03-19T00:51:31.550Z,2.86
2019-03-19T00:52:31.433Z,2.75
2019-03-19T00:53:31.392Z,2.71
2019-03-19T00:54:31.408Z,2.72
2019-03-19T00:55:40.350Z,2.65
2019-03-19T00:56:32.359Z,2.61
2019-03-19T00:57:31.399Z,2.65
2019-03-19T00:58:31.361Z,2.66
2019-03-19T00:59:31.380Z,2.69
2019-03-19T01:00:31.392Z,2.63
2019-03-19T01:01:31.302Z,2.63
2019-03-19T01:02:31.293Z,2.65
2019-03-19T01:03:31.350Z,2.61
2019-03-19T01:04:31.277Z,2.50
2019-03-19T01:05:31.288Z,2.57
2019-03-19T01:06:31.230Z,2.51
2019-03-19T01:07:31.236Z,2.58
2019-03-19T01:08:31.254Z,2.47
2019-03-19T01:09:31.237Z,2.42
2019-03-19T01:10:31.256Z,2.40
2019-03-19T01:11:31.220Z,2.42
2019-03-19T01:12:31.179Z,2.45
2019-03-19T01:13:31.191Z,2.42
2019-03-19T01:14:31.470Z,2.35
2019-03-19T01:15:31.179Z,2.32
2019-03-19T01:16:31.143Z,2.43
2019-03-19T01:17:31.149Z,2.37
2019-03-19T01:18:31.154Z,2.40
2019-03-19T01:19:31.124Z,2.36
2019-03-19T01:20:31.123Z,2.35
2019-03-19T01:21:31.115Z,2.36
2019-03-19T01:22:31.064Z,2.33
2019-03-19T01:23:31.076Z,2.29
2019-03-19T01:24:31.054Z,2.30
2019-03-19T01:25:31.089Z,2.37
2019-03-19T01:26:31.058Z,2.22
2019-03-19T01:27:31.044Z,2.28
2019-03-19T01:28:31.029Z,2.32
2019-03-19T01:29:30.989Z,2.19
2019-03-19T01:30:31.013Z,2.17
2019-03-19T01:31:30.972Z,2.22
2019-03-19T01:32:31.014Z,2.18
2019-03-19T01:33:30.942Z,2.22
2019-03-19T01:34:31.002Z,2.25
2019-03-19T01:35:30.960Z,2.15
2019-03-19T01:36:30.918Z,2.19
2019-03-19T01:37:30.907Z,2.17
2019-03-19T01:38:30.913Z,2.21
2019-03-19T01:39:30.906Z,2.29
2019-03-19T01:40:30.911Z,2.33
2019-03-19T01:41:30.866Z,2.30
2019-03-19T01:42:30.878Z,2.29
2019-03-19T01:43:30.881Z,2.30
2019-03-19T01:44:30.836Z,2.33
2019-03-19T01:45:30.819Z,2.32
2019-03-19T01:46:30.809Z,2.29
2019-03-19T01:47:30.818Z,2.29
2019-03-19T01:48:30.787Z,2.36
2019-03-19T01:49:30.816Z,2.36
2019-03-19T01:50:30.806Z,2.28
2019-03-19T01:51:30.781Z,2.33
2019-03-19T01:52:30.763Z,2.18
2019-03-19T01:53:30.752Z,2.29
2019-03-19T01:54:30.747Z,2.42
2019-03-19T01:55:30.791Z,2.36
2019-03-19T01:56:30.755Z,2.33
2019-03-19T01:57:30.696Z,2.30
2019-03-19T01:58:30.705Z,2.40
2019-03-19T01:59:30.688Z,2.36
2019-03-19T02:00:30.662Z,2.39
2019-03-19T02:01:30.741Z,2.40
2019-03-19T02:02:30.659Z,2.36
2019-03-19T02:03:30.648Z,2.36
2019-03-19T02:04:30.619Z,2.30
2019-03-19T02:05:30.630Z,2.25
2019-03-19T02:06:30.611Z,2.30
2019-03-19T02:07:30.638Z,2.25
2019-03-19T02:08:30.602Z,2.21
2019-03-19T02:09:30.582Z,2.22
2019-03-19T02:10:30.550Z,2.11
2019-03-19T02:11:30.616Z,2.14
2019-03-19T02:12:30.532Z,2.14
2019-03-19T02:13:30.551Z,2.14
2019-03-19T02:14:30.535Z,2.10
2019-03-19T02:15:30.496Z,2.10
2019-03-19T02:16:30.505Z,2.07
2019-03-19T02:17:30.518Z,2.00
2019-03-19T02:18:30.513Z,2.03
2019-03-19T02:19:30.488Z,2.01
2019-03-19T02:20:30.440Z,2.06
2019-03-19T02:21:30.503Z,2.06
2019-03-19T02:22:30.410Z,2.01
2019-03-19T02:23:30.410Z,2.11
2019-03-19T02:24:30.400Z,2.07
2019-03-19T02:25:30.496Z,2.24
2019-03-19T02:26:30.405Z,2.21
2019-03-19T02:27:30.385Z,2.22
2019-03-19T02:28:30.453Z,2.19
2019-03-19T02:29:30.363Z,2.19
2019-03-19T02:30:30.385Z,2.17
2019-03-19T02:31:30.525Z,2.17
2019-03-19T02:32:30.371Z,2.14
2019-03-19T02:33:30.317Z,2.17
2019-03-19T02:34:30.294Z,2.14
2019-03-19T02:35:30.279Z,2.12
2019-03-19T02:36:30.378Z,2.10
2019-03-19T02:37:30.268Z,2.12
2019-03-19T02:38:30.293Z,2.15
2019-03-19T02:39:30.282Z,2.19
2019-03-19T02:40:30.253Z,2.17
2019-03-19T02:41:30.306Z,2.21
2019-03-19T02:42:30.263Z,2.18
2019-03-19T02:43:30.225Z,2.29
2019-03-19T02:44:30.165Z,2.21
2019-03-19T02:45:30.177Z,2.24
2019-03-19T02:46:30.202Z,2.17
2019-03-19T02:47:30.156Z,2.14
2019-03-19T02:48:30.171Z,2.19
2019-03-19T02:49:30.163Z,2.14
2019-03-19T02:50:30.141Z,2.07
2019-03-19T02:51:30.141Z,2.04
2019-03-19T02:52:30.121Z,2.06
2019-03-19T02:53:30.112Z,2.01
2019-03-19T02:54:30.083Z,2.00
2019-03-19T02:55:30.077Z,2.01
2019-03-19T02:56:33.327Z,1.97
2019-03-19T02:57:30.070Z,1.89
2019-03-19T02:58:30.051Z,1.97
2019-03-19T02:59:30.040Z,1.91
2019-03-19T03:01:47.029Z,1.93
2019-03-19T03:02:46.266Z,1.87
2019-03-19T03:03:46.220Z,1.89
2019-03-19T03:04:46.217Z,1.97
2019-03-19T03:05:46.197Z,1.80
2019-03-19T03:06:46.195Z,1.80
2019-03-19T03:07:46.203Z,1.81
2019-03-19T03:08:46.193Z,1.77
2019-03-19T03:09:46.178Z,1.62
2019-03-19T03:10:46.145Z,1.55
2019-03-19T03:11:46.206Z,1.62
2019-03-19T03:12:46.154Z,1.55
2019-03-19T03:13:46.104Z,1.56
2019-03-19T03:14:46.467Z,1.62
2019-03-19T03:15:46.077Z,1.62
2019-03-19T03:16:46.085Z,1.57
2019-03-19T03:17:46.094Z,1.67
2019-03-19T03:18:46.077Z,1.60
2019-03-19T03:19:46.068Z,1.62
2019-03-19T03:20:46.061Z,1.64
2019-03-19T03:21:46.065Z,1.55
2019-03-19T03:22:46.013Z,1.60
2019-03-19T03:23:46.000Z,1.64
2019-03-19T03:24:45.994Z,1.64
2019-03-19T03:25:46.034Z,1.63
2019-03-19T03:26:48.003Z,1.71
2019-03-19T03:27:45.963Z,1.64
2019-03-19T03:28:45.943Z,1.66
2019-03-19T03:29:45.943Z,1.63
2019-03-19T03:30:45.999Z,1.78
2019-03-19T03:31:45.985Z,1.71
2019-03-19T03:32:45.964Z,1.78
2019-03-19T03:33:45.908Z,1.80
2019-03-19T03:34:45.956Z,1.71
2019-03-19T03:35:45.961Z,1.81
2019-03-19T03:36:45.866Z,1.74
2019-03-19T03:37:45.857Z,1.74
2019-03-19T03:38:45.869Z,1.78
2019-03-19T03:39:45.830Z,1.81
2019-03-19T03:40:45.931Z,1.80
2019-03-19T03:41:45.812Z,1.85
2019-03-19T03:42:45.834Z,1.81
2019-03-19T03:43:45.815Z,1.74
2019-03-19T03:44:45.771Z,1.78
2019-03-19T03:45:45.798Z,1.75
2019-03-19T03:46:45.793Z,1.75
2019-03-19T03:47:45.897Z,1.69
2019-03-19T03:48:45.737Z,1.64
2019-03-19T03:49:45.725Z,1.62
2019-03-19T03:50:45.707Z,1.64
2019-03-19T03:51:45.711Z,1.60
2019-03-19T03:52:45.721Z,1.63
2019-03-19T03:53:45.743Z,1.62
2019-03-19T03:54:45.662Z,1.60
2019-03-19T03:55:45.666Z,1.59
2019-03-19T03:56:45.648Z,1.48
2019-03-19T03:57:45.695Z,1.53
2019-03-19T03:58:59.641Z,1.39
2019-03-19T03:59:46.613Z,1.38
2019-03-19T04:00:45.591Z,1.30
2019-03-19T04:01:45.591Z,1.34
2019-03-19T04:02:45.596Z,1.31
2019-03-19T04:03:45.602Z,1.28
2019-03-19T04:04:45.568Z,1.36
2019-03-19T04:05:45.555Z,1.28
2019-03-19T04:06:45.566Z,1.41
2019-03-19T04:07:45.554Z,1.28
2019-03-19T04:08:45.574Z,1.27
2019-03-19T04:09:45.513Z,1.38
2019-03-19T04:10:45.520Z,1.26
2019-03-19T04:11:45.557Z,1.31
2019-03-19T04:12:45.507Z,1.26
2019-03-19T04:13:45.557Z,1.34
2019-03-19T04:14:46.793Z,1.28
2019-03-19T04:15:45.489Z,1.27
2019-03-19T04:16:45.485Z,1.28
2019-03-19T04:17:45.450Z,1.38
2019-03-19T04:18:45.445Z,1.27
2019-03-19T04:19:45.429Z,1.23
2019-03-19T04:20:45.393Z,1.27
2019-03-19T04:21:45.375Z,1.28
2019-03-19T04:22:45.392Z,1.28
2019-03-19T04:23:45.357Z,1.24
2019-03-19T04:24:45.401Z,1.27
2019-03-19T04:25:45.345Z,1.26
2019-03-19T04:26:45.326Z,1.24
2019-03-19T04:27:45.337Z,1.26
2019-03-19T04:28:45.368Z,1.23
2019-03-19T04:29:45.295Z,1.16
2019-03-19T04:30:45.308Z,1.28
2019-03-19T04:31:45.325Z,1.28
2019-03-19T04:32:45.266Z,1.24
2019-03-19T04:33:45.251Z,1.24
2019-03-19T04:34:45.237Z,1.31
2019-03-19T04:35:45.251Z,1.24
2019-03-19T04:36:45.228Z,1.30
2019-03-19T04:37:45.268Z,1.18
2019-03-19T04:38:45.243Z,1.18
2019-03-19T04:39:45.195Z,1.20
2019-03-19T04:40:45.198Z,1.17
2019-03-19T04:41:45.179Z,1.10
2019-03-19T04:42:45.228Z,1.05
2019-03-19T04:43:45.216Z,1.08
2019-03-19T04:44:45.163Z,1.10
2019-03-19T04:45:45.132Z,1.05
2019-03-19T04:46:45.148Z,1.08
2019-03-19T04:47:45.109Z,1.09
2019-03-19T04:48:45.097Z,1.12
2019-03-19T04:49:45.191Z,1.10
2019-03-19T04:50:45.091Z,1.08
2019-03-19T04:51:45.084Z,1.17
2019-03-19T04:52:45.082Z,1.16
2019-03-19T04:53:45.114Z,1.08
2019-03-19T04:54:45.052Z,1.09
2019-03-19T04:55:45.056Z,1.10
2019-03-19T04:56:45.005Z,1.09
2019-03-19T04:57:45.006Z,1.12
2019-03-19T04:58:44.994Z,1.09
2019-03-19T04:59:45.065Z,1.10
2019-03-19T05:00:45.018Z,1.09
2019-03-19T05:01:44.956Z,1.08
2019-03-19T05:02:44.959Z,1.03
2019-03-19T05:03:44.943Z,1.02
2019-03-19T05:04:45.257Z,1.10
2019-03-19T05:05:44.920Z,1.10
2019-03-19T05:06:44.892Z,1.05
2019-03-19T05:07:44.903Z,1.06
2019-03-19T05:08:44.883Z,1.09
2019-03-19T05:09:44.872Z,1.03
2019-03-19T05:10:44.920Z,1.06
2019-03-19T05:11:44.857Z,1.10
2019-03-19T05:12:44.847Z,1.10
2019-03-19T05:13:44.839Z,1.10
2019-03-19T05:14:44.872Z,1.10
2019-03-19T05:15:44.842Z,1.02
2019-03-19T05:16:44.781Z,1.09
2019-03-19T05:17:44.785Z,1.09
2019-03-19T05:18:44.778Z,0.98
2019-03-19T05:19:44.777Z,1.02
2019-03-19T05:20:44.860Z,0.99
2019-03-19T05:21:44.770Z,1.05
2019-03-19T05:22:44.747Z,0.91
2019-03-19T05:23:44.726Z,0.92
2019-03-19T05:24:44.806Z,0.96
2019-03-19T05:25:44.714Z,0.94
2019-03-19T05:26:44.737Z,0.98
2019-03-19T05:27:44.711Z,0.96
2019-03-19T05:28:44.682Z,0.87
2019-03-19T05:29:44.695Z,0.90
2019-03-19T05:30:44.653Z,0.85
2019-03-19T05:31:44.644Z,0.88
2019-03-19T05:32:44.701Z,0.94
2019-03-19T05:33:44.646Z,0.91
2019-03-19T05:34:44.695Z,0.87
2019-03-19T05:35:44.597Z,0.94
2019-03-19T05:36:44.600Z,1.00
2019-03-19T05:37:44.594Z,0.92
2019-03-19T05:38:44.572Z,1.00
2019-03-19T05:39:44.544Z,0.90
2019-03-19T05:40:44.562Z,0.91
2019-03-19T05:41:44.530Z,1.03
2019-03-19T05:42:44.511Z,0.90
2019-03-19T05:43:44.532Z,1.02
2019-03-19T05:44:44.567Z,0.90
2019-03-19T05:45:44.491Z,0.92
2019-03-19T05:46:44.482Z,0.91
2019-03-19T05:47:44.472Z,0.98
2019-03-19T05:48:44.464Z,0.91
2019-03-19T05:49:44.506Z,0.96
2019-03-19T05:50:44.457Z,0.99
2019-03-19T05:51:44.438Z,1.00
2019-03-19T05:52:44.444Z,0.94
2019-03-19T05:53:44.439Z,0.90
2019-03-19T05:54:44.419Z,1.03
2019-03-19T05:55:44.463Z,0.94
2019-03-19T05:56:44.402Z,0.94
2019-03-19T05:57:49.301Z,1.05
2019-03-19T05:58:45.394Z,0.90
2019-03-19T05:59:44.416Z,0.98
2019-03-19T06:00:44.361Z,0.98
2019-03-19T06:01:44.331Z,0.87
2019-03-19T06:02:44.394Z,0.87
2019-03-19T06:03:44.317Z,0.85
2019-03-19T06:04:44.356Z,0.87
2019-03-19T06:05:44.293Z,0.88
2019-03-19T06:06:44.284Z,1.02
2019-03-19T06:07:44.304Z,0.94
2019-03-19T06:08:44.295Z,0.96
2019-03-19T06:09:44.249Z,1.00
2019-03-19T06:10:44.266Z,1.02
2019-03-19T06:11:44.231Z,1.10
2019-03-19T06:12:44.219Z,1.00
2019-03-19T06:13:44.231Z,1.02
2019-03-19T06:14:44.235Z,0.96
2019-03-19T06:15:44.189Z,1.12
2019-03-19T06:16:44.177Z,1.08
2019-03-19T06:17:44.204Z,1.10
2019-03-19T06:18:44.143Z,1.18
2019-03-19T06:19:44.152Z,1.24
2019-03-19T06:20:44.147Z,1.20
2019-03-19T06:21:44.124Z,1.23
2019-03-19T06:22:44.185Z,1.20
2019-03-19T06:23:44.107Z,1.18
2019-03-19T06:24:44.124Z,1.18
2019-03-19T06:25:44.085Z,1.20
2019-03-19T06:26:44.073Z,1.30
2019-03-19T06:27:44.054Z,1.28
2019-03-19T06:28:44.084Z,1.30
2019-03-19T06:29:44.049Z,1.30
2019-03-19T06:30:44.054Z,1.36
2019-03-19T06:31:44.021Z,1.38
2019-03-19T06:32:44.023Z,1.41
2019-03-19T06:33:44.023Z,1.55
2019-03-19T06:34:43.988Z,1.55
2019-03-19T06:35:44.004Z,1.60
2019-03-19T06:36:44.000Z,1.60
2019-03-19T06:37:43.952Z,1.56
2019-03-19T06:38:43.968Z,1.66
2019-03-19T06:39:43.924Z,1.69
2019-03-19T06:40:43.951Z,1.78
2019-03-19T06:41:43.913Z,1.80
2019-03-19T06:42:43.944Z,1.80
2019-03-19T06:43:43.877Z,1.92
2019-03-19T06:44:43.864Z,1.89
2019-03-19T06:45:43.899Z,1.80
2019-03-19T06:46:43.835Z,1.84
2019-03-19T06:47:43.838Z,1.99
2019-03-19T06:48:43.827Z,2.03
2019-03-19T06:49:43.835Z,1.95
2019-03-19T06:50:45.454Z,2.04
2019-03-19T06:51:43.797Z,2.10
2019-03-19T06:52:43.890Z,2.15
2019-03-19T06:53:43.801Z,2.11
2019-03-19T06:54:43.787Z,2.15
2019-03-19T06:55:43.800Z,2.17
2019-03-19T06:56:43.753Z,2.21
2019-03-19T06:57:43.750Z,2.22
2019-03-19T06:58:43.734Z,2.30
2019-03-19T06:59:43.737Z,2.32
2019-03-19T07:00:43.752Z,2.36
2019-03-19T07:01:43.693Z,2.37
2019-03-19T07:02:43.708Z,2.45
2019-03-19T07:03:43.680Z,2.36
2019-03-19T07:04:43.661Z,2.36
2019-03-19T07:05:43.622Z,2.43
2019-03-19T07:06:43.693Z,2.51
2019-03-19T07:07:43.648Z,2.47
2019-03-19T07:08:43.703Z,2.55
2019-03-19T07:09:43.621Z,2.53
2019-03-19T07:10:43.612Z,2.48
2019-03-19T07:11:43.575Z,2.51
2019-03-19T07:12:43.576Z,2.61
2019-03-19T07:13:43.553Z,2.69
2019-03-19T07:14:43.557Z,2.72
2019-03-19T07:15:43.545Z,2.65
2019-03-19T07:16:43.535Z,2.75
2019-03-19T07:17:43.498Z,2.79
2019-03-19T07:18:43.527Z,2.96
2019-03-19T07:19:43.548Z,2.96
2019-03-19T07:20:43.514Z,2.93
2019-03-19T07:21:43.475Z,2.97
2019-03-19T07:22:43.493Z,3.02
2019-03-19T07:23:43.454Z,3.05
2019-03-19T07:24:43.467Z,3.15
2019-03-19T07:25:43.476Z,3.23
2019-03-19T07:26:43.441Z,3.22
2019-03-19T07:27:43.406Z,3.23
2019-03-19T07:28:43.414Z,3.26
2019-03-19T07:29:43.372Z,3.23
2019-03-19T07:30:43.398Z,3.33
2019-03-19T07:31:43.432Z,3.41
2019-03-19T07:32:43.355Z,3.48
2019-03-19T07:33:43.374Z,3.48
2019-03-19T07:34:43.333Z,3.51
2019-03-19T07:35:43.352Z,3.63
2019-03-19T07:36:43.423Z,3.66
2019-03-19T07:37:43.278Z,3.74
2019-03-19T07:38:43.320Z,3.78
2019-03-19T07:39:43.331Z,3.84
2019-03-19T07:40:43.340Z,3.90
2019-03-19T07:41:43.268Z,3.94
2019-03-19T07:42:43.269Z,4.02
2019-03-19T07:43:43.252Z,3.98
2019-03-19T07:44:43.258Z,3.98
2019-03-19T07:45:43.287Z,4.00
2019-03-19T07:46:45.740Z,3.99
2019-03-19T07:47:43.218Z,4.02
2019-03-19T07:48:43.185Z,4.05
2019-03-19T07:49:43.171Z,4.08
2019-03-19T07:50:43.197Z,4.12
2019-03-19T07:51:43.178Z,4.13
2019-03-19T07:52:43.159Z,4.26
2019-03-19T07:53:43.138Z,4.21
2019-03-19T07:54:43.146Z,4.26
2019-03-19T07:55:43.117Z,4.36
2019-03-19T07:56:43.118Z,4.36
2019-03-19T07:57:43.109Z,4.35
2019-03-19T07:58:45.486Z,4.46
2019-03-19T07:59:43.093Z,4.53
2019-03-19T08:00:43.125Z,4.59
2019-03-19T08:01:43.123Z,4.56
2019-03-19T08:02:43.104Z,4.61
2019-03-19T08:03:43.010Z,4.60
2019-03-19T08:04:43.005Z,4.63
2019-03-19T08:05:42.993Z,4.67
2019-03-19T08:06:43.006Z,4.71
2019-03-19T08:07:42.964Z,4.67
2019-03-19T08:08:42.958Z,4.67
2019-03-19T08:09:42.929Z,4.78
2019-03-19T08:10:42.941Z,4.86
2019-03-19T08:11:42.960Z,4.85
2019-03-19T08:12:42.961Z,4.79
2019-03-19T08:13:42.898Z,4.89
2019-03-19T08:14:42.890Z,4.93
2019-03-19T08:15:42.889Z,4.93
2019-03-19T08:16:42.905Z,4.94
2019-03-19T08:17:43.251Z,4.98
2019-03-19T08:18:42.862Z,5.09
2019-03-19T08:19:43.723Z,5.11
2019-03-19T08:20:42.811Z,5.15
2019-03-19T08:21:42.885Z,5.21
2019-03-19T08:22:42.812Z,5.24
2019-03-19T08:23:42.796Z,5.22
2019-03-19T08:24:42.861Z,5.21
2019-03-19T08:25:42.776Z,5.32
2019-03-19T08:26:42.784Z,5.33
2019-03-19T08:27:42.758Z,5.37
2019-03-19T08:28:42.747Z,5.39
2019-03-19T08:29:42.760Z,5.44
2019-03-19T08:30:42.752Z,5.43
2019-03-19T08:31:42.742Z,5.55
2019-03-19T08:32:42.777Z,5.55
2019-03-19T08:33:42.695Z,5.54
2019-03-19T08:34:42.672Z,5.61
2019-03-19T08:35:42.670Z,5.62
2019-03-19T08:36:42.664Z,5.67
2019-03-19T08:37:42.675Z,5.67
2019-03-19T08:38:42.685Z,5.67
2019-03-19T08:39:42.625Z,5.75
2019-03-19T08:40:42.655Z,5.73
2019-03-19T08:41:42.691Z,5.84
2019-03-19T08:42:42.598Z,5.88
2019-03-19T08:43:42.613Z,5.93
2019-03-19T08:44:42.578Z,5.94
2019-03-19T08:45:42.557Z,5.94
2019-03-19T08:46:42.625Z,5.98
2019-03-19T08:47:42.553Z,6.02
2019-03-19T08:48:42.511Z,6.06
2019-03-19T08:49:42.522Z,6.02
2019-03-19T08:50:42.554Z,6.19
2019-03-19T08:51:42.807Z,6.11
2019-03-19T08:52:42.492Z,6.18
2019-03-19T08:53:42.495Z,6.13
2019-03-19T08:54:42.474Z,6.24
2019-03-19T08:55:42.454Z,6.30
2019-03-19T08:56:42.445Z,6.32
2019-03-19T08:57:42.468Z,6.42
2019-03-19T08:58:42.434Z,6.37
2019-03-19T08:59:42.424Z,6.37
2019-03-19T09:00:42.426Z,6.42
2019-03-19T09:01:42.478Z,6.49
2019-03-19T09:02:42.381Z,6.47
2019-03-19T09:03:42.358Z,6.43
2019-03-19T09:04:42.358Z,6.43
2019-03-19T09:05:42.346Z,6.47
2019-03-19T09:06:42.361Z,6.49
2019-03-19T09:07:42.321Z,6.38
2019-03-19T09:08:42.311Z,6.40
2019-03-19T09:09:42.301Z,6.40
2019-03-19T09:10:42.282Z,6.35
2019-03-19T09:11:42.337Z,6.40
2019-03-19T09:12:42.266Z,6.35
2019-03-19T09:13:42.258Z,6.47
2019-03-19T09:14:42.275Z,6.38
2019-03-19T09:15:42.564Z,6.47
2019-03-19T09:16:42.308Z,6.43
2019-03-19T09:17:42.250Z,6.40
2019-03-19T09:18:42.206Z,6.42
2019-03-19T09:19:42.215Z,6.43
2019-03-19T09:20:42.201Z,6.53
2019-03-19T09:21:42.251Z,6.56
2019-03-19T09:22:42.218Z,6.40
2019-03-19T09:23:42.173Z,6.38
2019-03-19T09:24:42.159Z,6.45
2019-03-19T09:25:42.152Z,6.43
2019-03-19T09:26:42.206Z,6.45
2019-03-19T09:27:42.134Z,6.42
2019-03-19T09:28:42.122Z,6.55
2019-03-19T09:29:42.083Z,6.56
2019-03-19T09:30:42.078Z,6.64
2019-03-19T09:31:42.055Z,6.61
2019-03-19T09:32:42.089Z,6.68
2019-03-19T09:33:42.084Z,6.68
2019-03-19T09:34:42.084Z,6.70
2019-03-19T09:35:42.018Z,6.78
2019-03-19T09:36:42.009Z,6.74
2019-03-19T09:37:44.815Z,6.74
2019-03-19T09:38:42.979Z,6.89
2019-03-19T09:39:41.969Z,6.89
2019-03-19T09:40:41.973Z,6.86
2019-03-19T09:41:41.951Z,6.86
2019-03-19T09:42:41.972Z,6.91
2019-03-19T09:43:41.935Z,6.93
2019-03-19T09:44:41.921Z,7.00
2019-03-19T09:45:41.942Z,7.03
2019-03-19T09:46:41.930Z,7.04
2019-03-19T09:47:41.921Z,7.00
2019-03-19T09:48:41.907Z,7.03
2019-03-19T09:49:41.869Z,7.11
2019-03-19T09:50:41.862Z,7.13
2019-03-19T09:51:41.825Z,7.15
2019-03-19T09:52:41.885Z,7.18
2019-03-19T09:53:41.824Z,7.15
2019-03-19T09:54:41.837Z,7.08
2019-03-19T09:55:41.810Z,7.18
2019-03-19T09:56:41.850Z,7.19
2019-03-19T09:57:41.818Z,7.26
2019-03-19T09:58:41.784Z,7.24
2019-03-19T09:59:43.619Z,7.31
2019-03-19T10:00:41.747Z,7.26
2019-03-19T10:01:41.735Z,7.43
2019-03-19T10:02:41.809Z,7.49
2019-03-19T10:03:41.724Z,7.50
2019-03-19T10:04:41.715Z,7.52
2019-03-19T10:05:41.690Z,7.58
2019-03-19T10:06:41.705Z,7.58
2019-03-19T10:07:41.708Z,7.64
2019-03-19T10:08:41.668Z,7.62
2019-03-19T10:09:41.667Z,7.71
2019-03-19T10:10:41.730Z,7.81
2019-03-19T10:11:41.604Z,7.84
2019-03-19T10:12:41.635Z,7.88
2019-03-19T10:13:41.618Z,8.01
2019-03-19T10:14:41.593Z,8.01
2019-03-19T10:15:41.603Z,8.13
2019-03-19T10:16:41.592Z,8.13
2019-03-19T10:17:41.623Z,8.14
2019-03-19T10:18:41.564Z,8.19
2019-03-19T10:19:41.552Z,8.16
2019-03-19T10:20:41.508Z,8.17
2019-03-19T10:21:41.536Z,8.20
2019-03-19T10:22:41.531Z,8.28
2019-03-19T10:23:41.520Z,8.26
2019-03-19T10:24:41.482Z,8.31
2019-03-19T10:25:41.486Z,8.32
2019-03-19T10:26:41.458Z,8.38
2019-03-19T10:27:41.530Z,8.44
2019-03-19T10:28:41.458Z,8.39
2019-03-19T10:29:41.436Z,8.46
2019-03-19T10:30:41.443Z,8.39
2019-03-19T10:31:41.426Z,8.47
2019-03-19T10:32:41.429Z,8.50
2019-03-19T10:33:41.421Z,8.60
2019-03-19T10:34:41.402Z,8.56
2019-03-19T10:35:41.342Z,8.55
2019-03-19T10:36:41.366Z,8.62
2019-03-19T10:37:41.396Z,8.60
2019-03-19T10:38:41.326Z,8.56
2019-03-19T10:39:41.317Z,8.55
2019-03-19T10:40:41.309Z,8.49
2019-03-19T10:41:41.372Z,8.60
2019-03-19T10:42:41.357Z,8.53
2019-03-19T10:43:41.301Z,8.52
2019-03-19T10:44:41.261Z,8.59
2019-03-19T10:45:41.275Z,8.59
2019-03-19T10:46:41.242Z,8.60
2019-03-19T10:47:41.247Z,8.59
2019-03-19T10:48:41.228Z,8.62
2019-03-19T10:49:41.200Z,8.68
2019-03-19T10:50:41.203Z,8.63
2019-03-19T10:51:41.189Z,8.71
2019-03-19T10:52:41.229Z,8.75
2019-03-19T10:53:41.219Z,8.80
2019-03-19T10:54:41.169Z,8.83
2019-03-19T10:55:41.236Z,8.92
2019-03-19T10:56:41.124Z,8.89
2019-03-19T10:57:41.183Z,8.89
2019-03-19T10:58:41.128Z,8.93
2019-03-19T10:59:48.784Z,8.99
2019-03-19T11:00:42.078Z,9.03
2019-03-19T11:01:41.075Z,9.01
2019-03-19T11:02:41.110Z,9.06
2019-03-19T11:03:41.080Z,9.03
2019-03-19T11:04:41.097Z,9.09
2019-03-19T11:05:41.056Z,9.04
2019-03-19T11:06:41.049Z,9.03
2019-03-19T11:07:41.078Z,9.09
2019-03-19T11:08:41.024Z,9.04
2019-03-19T11:09:41.015Z,9.04
2019-03-19T11:10:40.956Z,9.06
2019-03-19T11:11:40.995Z,8.99
2019-03-19T11:12:41.014Z,8.93
2019-03-19T11:13:40.957Z,8.93
2019-03-19T11:14:40.934Z,8.92
2019-03-19T11:15:40.918Z,8.67
2019-03-19T11:16:40.907Z,8.46
2019-03-19T11:17:40.930Z,8.49
2019-03-19T11:18:40.889Z,8.49
2019-03-19T11:19:40.874Z,8.52
2019-03-19T11:20:40.880Z,8.39
2019-03-19T11:21:40.983Z,8.50
2019-03-19T11:22:40.840Z,8.44
2019-03-19T11:23:40.865Z,8.55
2019-03-19T11:24:40.819Z,8.62
2019-03-19T11:25:40.808Z,8.68
2019-03-19T11:26:40.806Z,8.63
2019-03-19T11:27:40.796Z,8.67
2019-03-19T11:28:40.809Z,8.72
2019-03-19T11:29:40.765Z,8.70
2019-03-19T11:30:40.742Z,8.62
2019-03-19T11:31:40.778Z,8.71
2019-03-19T11:32:40.764Z,8.77
2019-03-19T11:33:40.722Z,8.70
2019-03-19T11:34:40.727Z,8.74
2019-03-19T11:35:40.709Z,8.71
2019-03-19T11:36:40.698Z,8.80
2019-03-19T11:37:40.711Z,8.85
2019-03-19T11:38:40.720Z,8.85
2019-03-19T11:39:40.651Z,8.90
2019-03-19T11:40:40.642Z,8.99
2019-03-19T11:41:40.634Z,8.90
2019-03-19T11:42:40.631Z,8.90
2019-03-19T11:43:40.615Z,8.93
2019-03-19T11:44:42.850Z,8.95
2019-03-19T11:45:40.586Z,8.90
2019-03-19T11:46:40.575Z,8.99
2019-03-19T11:47:40.565Z,8.96
2019-03-19T11:48:40.620Z,9.06
2019-03-19T11:49:40.547Z,9.06
2019-03-19T11:50:40.534Z,9.06
2019-03-19T11:51:40.516Z,9.11
2019-03-19T11:52:40.517Z,9.24
2019-03-19T11:53:40.540Z,9.22
2019-03-19T11:54:40.517Z,9.22
2019-03-19T11:55:40.512Z,9.29
2019-03-19T11:56:40.470Z,9.23
2019-03-19T11:57:40.450Z,9.30
2019-03-19T11:58:40.475Z,9.33
2019-03-19T11:59:40.440Z,9.27
2019-03-19T12:00:40.454Z,9.32
2019-03-19T12:01:40.440Z,9.34
2019-03-19T12:02:40.413Z,9.44
2019-03-19T12:03:40.392Z,9.44
2019-03-19T12:04:40.418Z,9.45
2019-03-19T12:05:40.369Z,9.44
2019-03-19T12:06:40.367Z,9.45
2019-03-19T12:07:40.409Z,9.45
2019-03-19T12:08:40.320Z,9.48
2019-03-19T12:09:40.381Z,9.50
2019-03-19T12:10:40.323Z,9.59
2019-03-19T12:11:40.327Z,9.66
2019-03-19T12:12:40.360Z,9.59
2019-03-19T12:13:40.274Z,9.50
2019-03-19T12:14:40.255Z,9.47
2019-03-19T12:15:40.290Z,9.62
2019-03-19T12:16:40.257Z,9.62
2019-03-19T12:17:40.268Z,9.67
2019-03-19T12:18:40.233Z,9.70
2019-03-19T12:19:40.221Z,9.78
2019-03-19T12:20:40.210Z,9.72
2019-03-19T12:21:40.204Z,9.77
2019-03-19T12:22:40.211Z,9.87
2019-03-19T12:23:40.162Z,9.87
2019-03-19T12:24:40.184Z,9.96
2019-03-19T12:25:40.140Z,9.98
2019-03-19T12:26:40.149Z,9.96
2019-03-19T12:27:40.179Z,9.94
2019-03-19T12:28:40.148Z,9.94
2019-03-19T12:29:40.147Z,9.96
2019-03-19T12:30:40.120Z,9.96
2019-03-19T12:31:40.083Z,10.01
2019-03-19T12:32:40.073Z,10.02
2019-03-19T12:33:41.357Z,10.05
2019-03-19T12:34:40.075Z,9.96
2019-03-19T12:35:40.044Z,9.72
2019-03-19T12:36:40.054Z,9.70
2019-03-19T12:37:40.107Z,9.66
2019-03-19T12:38:40.043Z,9.65
2019-03-19T12:39:40.012Z,9.62
2019-03-19T12:40:40.005Z,9.63
2019-03-19T12:41:40.001Z,9.62
2019-03-19T12:42:39.981Z,9.70
2019-03-19T12:43:40.031Z,9.72
2019-03-19T12:44:39.992Z,9.77
2019-03-19T12:45:39.968Z,9.83
2019-03-19T12:46:39.920Z,9.85
2019-03-19T12:47:39.908Z,9.91
2019-03-19T12:48:39.907Z,9.93
2019-03-19T12:49:39.954Z,9.96
2019-03-19T12:50:39.881Z,10.03
2019-03-19T12:51:39.938Z,10.17
2019-03-19T12:52:39.876Z,10.18
2019-03-19T12:53:39.901Z,10.23
2019-03-19T12:54:39.870Z,10.14
2019-03-19T12:55:39.854Z,10.27
2019-03-19T12:56:39.820Z,10.30
2019-03-19T12:57:39.827Z,10.34
2019-03-19T12:58:39.846Z,10.34
2019-03-19T12:59:39.783Z,10.34
2019-03-19T13:00:39.800Z,10.28
2019-03-19T13:01:39.750Z,10.31
2019-03-19T13:02:39.776Z,10.24
2019-03-19T13:03:39.784Z,10.26
2019-03-19T13:04:39.754Z,10.18
2019-03-19T13:05:39.712Z,10.20
2019-03-19T13:06:39.709Z,10.17
2019-03-19T13:07:39.712Z,10.17
2019-03-19T13:08:39.701Z,10.20
2019-03-19T13:09:39.694Z,10.16
2019-03-19T13:10:39.682Z,10.12
2019-03-19T13:11:39.682Z,10.08
2019-03-19T13:12:39.678Z,10.18
2019-03-19T13:13:40.996Z,10.17
2019-03-19T13:14:39.635Z,10.23
2019-03-19T13:15:39.596Z,10.35
2019-03-19T13:16:39.593Z,10.31
2019-03-19T13:17:39.633Z,10.28
2019-03-19T13:18:39.612Z,10.34